sensor_id;sensor_type;location;lat;lon;timestamp;pressure;altitude;pressure_sealevel;temperature;humidity
6395;BME280;3230;42.588;23.358;2023-02-04T00:00:23;90676.44;;;-0.78;96.23
6395;BME280;3230;42.588;23.358;2023-02-04T00:02:49;90657.69;;;-0.67;96.88
6395;BME280;3230;42.588;23.358;2023-02-04T00:05:18;90670.16;;;-0.64;96.56
6395;BME280;3230;42.588;23.358;2023-02-04T00:07:44;90655.25;;;-0.43;96.88
6395;BME280;3230;42.588;23.358;2023-02-04T00:10:10;90676.19;;;-0.77;97.57
6395;BME280;3230;42.588;23.358;2023-02-04T00:12:35;90662.97;;;-0.99;98.85
6395;BME280;3230;42.588;23.358;2023-02-04T00:15:01;90661.16;;;-1.17;99.42
6395;BME280;3230;42.588;23.358;2023-02-04T00:17:27;90644.59;;;-1.03;99.61
6395;BME280;3230;42.588;23.358;2023-02-04T00:19:52;90655.50;;;-1.26;100.00
6395;BME280;3230;42.588;23.358;2023-02-04T00:22:17;90652.94;;;-1.51;100.00
6395;BME280;3230;42.588;23.358;2023-02-04T00:24:44;90651.09;;;-1.44;100.00
6395;BME280;3230;42.588;23.358;2023-02-04T00:27:14;90658.41;;;-1.41;100.00
6395;BME280;3230;42.588;23.358;2023-02-04T00:29:40;90646.81;;;-1.50;100.00
6395;BME280;3230;42.588;23.358;2023-02-04T00:32:05;90655.41;;;-1.38;100.00
6395;BME280;3230;42.588;23.358;2023-02-04T00:34:30;90652.38;;;-1.53;100.00
6395;BME280;3230;42.588;23.358;2023-02-04T00:36:56;90660.34;;;-1.62;100.00
6395;BME280;3230;42.588;23.358;2023-02-04T00:39:21;90655.94;;;-1.54;100.00
6395;BME280;3230;42.588;23.358;2023-02-04T00:41:47;90637.25;;;-1.43;100.00
6395;BME280;3230;42.588;23.358;2023-02-04T00:44:12;90660.34;;;-1.62;100.00
6395;BME280;3230;42.588;23.358;2023-02-04T00:46:41;90657.53;;;-1.53;100.00
6395;BME280;3230;42.588;23.358;2023-02-04T00:49:07;90639.19;;;-1.64;100.00
6395;BME280;3230;42.588;23.358;2023-02-04T00:51:36;90661.38;;;-1.69;100.00
6395;BME280;3230;42.588;23.358;2023-02-04T00:54:01;90660.09;;;-1.53;100.00
6395;BME280;3230;42.588;23.358;2023-02-04T00:56:27;90653.38;;;-1.86;100.00
6395;BME280;3230;42.588;23.358;2023-02-04T00:58:52;90664.38;;;-1.72;100.00
6395;BME280;3230;42.588;23.358;2023-02-04T01:01:17;90652.25;;;-1.90;100.00
6395;BME280;3230;42.588;23.358;2023-02-04T01:03:43;90641.03;;;-1.71;100.00
6395;BME280;3230;42.588;23.358;2023-02-04T01:06:08;90644.06;;;-1.81;100.00
6395;BME280;3230;42.588;23.358;2023-02-04T01:08:34;90624.25;;;-1.99;100.00
6395;BME280;3230;42.588;23.358;2023-02-04T01:10:59;90638.41;;;-1.89;100.00
6395;BME280;3230;42.588;23.358;2023-02-04T01:13:24;90635.78;;;-1.57;100.00
6395;BME280;3230;42.588;23.358;2023-02-04T01:15:50;90625.31;;;-1.81;100.00
6395;BME280;3230;42.588;23.358;2023-02-04T01:18:15;90619.28;;;-1.68;100.00
6395;BME280;3230;42.588;23.358;2023-02-04T01:20:40;90605.41;;;-1.61;100.00
6395;BME280;3230;42.588;23.358;2023-02-04T01:23:06;90591.34;;;-1.58;100.00
6395;BME280;3230;42.588;23.358;2023-02-04T01:25:32;90589.25;;;-1.68;100.00
6395;BME280;3230;42.588;23.358;2023-02-04T01:27:57;90584.63;;;-1.84;100.00
6395;BME280;3230;42.588;23.358;2023-02-04T01:30:22;90577.28;;;-1.81;100.00
6395;BME280;3230;42.588;23.358;2023-02-04T01:32:48;90569.59;;;-1.81;100.00
6395;BME280;3230;42.588;23.358;2023-02-04T01:35:13;90579.28;;;-1.57;100.00
6395;BME280;3230;42.588;23.358;2023-02-04T01:37:39;90577.06;;;-1.54;100.00
6395;BME280;3230;42.588;23.358;2023-02-04T01:40:04;90572.66;;;-1.47;100.00
6395;BME280;3230;42.588;23.358;2023-02-04T01:42:30;90571.00;;;-1.59;100.00
6395;BME280;3230;42.588;23.358;2023-02-04T01:44:55;90580.25;;;-1.58;100.00
6395;BME280;3230;42.588;23.358;2023-02-04T01:47:21;90582.31;;;-1.67;100.00
6395;BME280;3230;42.588;23.358;2023-02-04T01:49:50;90563.31;;;-1.85;100.00
6395;BME280;3230;42.588;23.358;2023-02-04T01:52:16;90573.69;;;-1.73;100.00
6395;BME280;3230;42.588;23.358;2023-02-04T01:54:42;90569.47;;;-1.67;100.00
6395;BME280;3230;42.588;23.358;2023-02-04T01:57:12;90561.59;;;-1.47;100.00
6395;BME280;3230;42.588;23.358;2023-02-04T01:59:38;90546.59;;;-1.50;100.00
6395;BME280;3230;42.588;23.358;2023-02-04T02:02:41;90541.75;;;-1.40;100.00
6395;BME280;3230;42.588;23.358;2023-02-04T02:05:16;90544.88;;;-1.38;100.00
6395;BME280;3230;42.588;23.358;2023-02-04T02:07:45;90543.66;;;-1.35;100.00
6395;BME280;3230;42.588;23.358;2023-02-04T02:10:12;90535.03;;;-1.22;100.00
6395;BME280;3230;42.588;23.358;2023-02-04T02:12:39;90543.31;;;-1.02;100.00
6395;BME280;3230;42.588;23.358;2023-02-04T02:15:06;90545.88;;;-1.02;100.00
6395;BME280;3230;42.588;23.358;2023-02-04T02:17:32;90536.66;;;-0.91;100.00
6395;BME280;3230;42.588;23.358;2023-02-04T02:19:58;90535.22;;;-0.87;100.00
6395;BME280;3230;42.588;23.358;2023-02-04T02:23:10;90537.44;;;-0.90;100.00
6395;BME280;3230;42.588;23.358;2023-02-04T02:25:38;90532.25;;;-1.02;100.00
6395;BME280;3230;42.588;23.358;2023-02-04T02:28:08;90526.44;;;-0.79;100.00
6395;BME280;3230;42.588;23.358;2023-02-04T02:30:34;90518.09;;;-0.93;100.00
6395;BME280;3230;42.588;23.358;2023-02-04T02:33:00;90523.16;;;-0.86;100.00
6395;BME280;3230;42.588;23.358;2023-02-04T02:35:25;90507.78;;;-0.93;100.00
6395;BME280;3230;42.588;23.358;2023-02-04T02:37:51;90499.13;;;-0.80;100.00
6395;BME280;3230;42.588;23.358;2023-02-04T02:40:17;90484.28;;;-0.78;100.00
6395;BME280;3230;42.588;23.358;2023-02-04T02:42:44;90468.91;;;-0.85;100.00
6395;BME280;3230;42.588;23.358;2023-02-04T02:45:21;90482.25;;;-0.76;100.00
6395;BME280;3230;42.588;23.358;2023-02-04T02:47:47;90471.25;;;-0.95;100.00
6395;BME280;3230;42.588;23.358;2023-02-04T02:52:41;90459.00;;;-1.30;100.00
6395;BME280;3230;42.588;23.358;2023-02-04T02:55:14;90448.91;;;-1.32;100.00
6395;BME280;3230;42.588;23.358;2023-02-04T02:57:40;90434.84;;;-1.10;100.00
6395;BME280;3230;42.588;23.358;2023-02-04T03:02:41;90452.19;;;-1.24;100.00
6395;BME280;3230;42.588;23.358;2023-02-04T03:05:07;90436.06;;;-1.13;100.00
6395;BME280;3230;42.588;23.358;2023-02-04T03:07:34;90441.97;;;-1.13;100.00
6395;BME280;3230;42.588;23.358;2023-02-04T03:09:59;90457.47;;;-1.01;100.00
6395;BME280;3230;42.588;23.358;2023-02-04T03:12:25;90457.47;;;-1.01;100.00
6395;BME280;3230;42.588;23.358;2023-02-04T03:14:50;90448.63;;;-0.93;100.00
6395;BME280;3230;42.588;23.358;2023-02-04T03:17:16;90452.25;;;-0.82;100.00
6395;BME280;3230;42.588;23.358;2023-02-04T03:19:42;90449.19;;;-0.60;100.00
6395;BME280;3230;42.588;23.358;2023-02-04T03:22:07;90459.53;;;-0.49;100.00
6395;BME280;3230;42.588;23.358;2023-02-04T03:24:34;90472.25;;;-0.54;100.00
6395;BME280;3230;42.588;23.358;2023-02-04T03:27:00;90474.94;;;-0.91;100.00
6395;BME280;3230;42.588;23.358;2023-02-04T03:29:25;90472.94;;;-0.89;100.00
6395;BME280;3230;42.588;23.358;2023-02-04T03:31:51;90469.69;;;-0.84;100.00
6395;BME280;3230;42.588;23.358;2023-02-04T03:34:19;90451.91;;;-0.86;100.00
6395;BME280;3230;42.588;23.358;2023-02-04T03:36:44;90469.16;;;-0.86;100.00
6395;BME280;3230;42.588;23.358;2023-02-04T03:39:10;90462.16;;;-0.98;100.00
6395;BME280;3230;42.588;23.358;2023-02-04T03:41:35;90472.59;;;-1.11;100.00
6395;BME280;3230;42.588;23.358;2023-02-04T03:44:01;90460.63;;;-1.17;100.00
6395;BME280;3230;42.588;23.358;2023-02-04T03:46:26;90461.47;;;-1.23;100.00
6395;BME280;3230;42.588;23.358;2023-02-04T03:48:52;90459.69;;;-1.04;100.00
6395;BME280;3230;42.588;23.358;2023-02-04T03:51:18;90452.72;;;-1.04;100.00
6395;BME280;3230;42.588;23.358;2023-02-04T03:53:43;90440.28;;;-0.88;100.00
6395;BME280;3230;42.588;23.358;2023-02-04T03:56:09;90439.88;;;-1.04;100.00
6395;BME280;3230;42.588;23.358;2023-02-04T03:58:34;90423.75;;;-1.11;100.00
6395;BME280;3230;42.588;23.358;2023-02-04T04:01:00;90425.41;;;-0.86;100.00
6395;BME280;3230;42.588;23.358;2023-02-04T04:03:25;90407.75;;;-0.71;100.00
6395;BME280;3230;42.588;23.358;2023-02-04T04:05:50;90399.72;;;-0.62;100.00
6395;BME280;3230;42.588;23.358;2023-02-04T04:08:16;90382.97;;;-0.29;100.00
6395;BME280;3230;42.588;23.358;2023-02-04T04:10:41;90385.13;;;-0.14;100.00
6395;BME280;3230;42.588;23.358;2023-02-04T04:13:06;90380.50;;;-0.01;100.00
6395;BME280;3230;42.588;23.358;2023-02-04T04:15:32;90383.94;;;0.17;100.00
6395;BME280;3230;42.588;23.358;2023-02-04T04:17:57;90382.81;;;0.37;100.00
6395;BME280;3230;42.588;23.358;2023-02-04T04:20:23;90375.25;;;0.47;100.00
6395;BME280;3230;42.588;23.358;2023-02-04T04:22:52;90369.94;;;0.66;100.00
6395;BME280;3230;42.588;23.358;2023-02-04T04:25:18;90380.84;;;0.85;99.42
6395;BME280;3230;42.588;23.358;2023-02-04T04:27:43;90379.31;;;1.01;97.39
6395;BME280;3230;42.588;23.358;2023-02-04T04:30:09;90401.63;;;1.07;97.25
6395;BME280;3230;42.588;23.358;2023-02-04T04:32:35;90407.53;;;0.90;97.68
6395;BME280;3230;42.588;23.358;2023-02-04T04:35:00;90402.13;;;0.92;97.28
6395;BME280;3230;42.588;23.358;2023-02-04T04:37:26;90405.75;;;1.08;96.42
6395;BME280;3230;42.588;23.358;2023-02-04T04:39:51;90418.81;;;1.01;96.62
6395;BME280;3230;42.588;23.358;2023-02-04T04:42:17;90418.84;;;0.89;97.84
6395;BME280;3230;42.588;23.358;2023-02-04T04:44:43;90420.75;;;0.94;97.30
6395;BME280;3230;42.588;23.358;2023-02-04T04:47:08;90423.75;;;1.03;96.85
6395;BME280;3230;42.588;23.358;2023-02-04T04:49:34;90432.19;;;0.86;98.10
6395;BME280;3230;42.588;23.358;2023-02-04T04:51:59;90423.97;;;0.72;98.57
6395;BME280;3230;42.588;23.358;2023-02-04T04:54:25;90425.84;;;0.77;98.27
6395;BME280;3230;42.588;23.358;2023-02-04T04:56:50;90422.56;;;0.82;98.78
6395;BME280;3230;42.588;23.358;2023-02-04T04:59:15;90426.31;;;0.74;98.65
6395;BME280;3230;42.588;23.358;2023-02-04T05:01:41;90432.47;;;0.73;99.03
6395;BME280;3230;42.588;23.358;2023-02-04T05:04:06;90415.91;;;0.69;99.33
6395;BME280;3230;42.588;23.358;2023-02-04T05:06:32;90424.94;;;0.83;99.81
6395;BME280;3230;42.588;23.358;2023-02-04T05:08:57;90418.25;;;0.58;100.00
6395;BME280;3230;42.588;23.358;2023-02-04T05:11:23;90425.13;;;0.53;100.00
6395;BME280;3230;42.588;23.358;2023-02-04T05:13:48;90427.03;;;0.57;100.00
6395;BME280;3230;42.588;23.358;2023-02-04T05:16:13;90423.63;;;0.69;100.00
6395;BME280;3230;42.588;23.358;2023-02-04T05:18:40;90405.84;;;0.55;100.00
6395;BME280;3230;42.588;23.358;2023-02-04T05:21:05;90411.06;;;0.72;100.00
6395;BME280;3230;42.588;23.358;2023-02-04T05:23:31;90423.03;;;0.78;100.00
6395;BME280;3230;42.588;23.358;2023-02-04T05:25:57;90416.19;;;0.84;100.00
6395;BME280;3230;42.588;23.358;2023-02-04T05:28:23;90425.84;;;0.77;100.00
6395;BME280;3230;42.588;23.358;2023-02-04T05:30:49;90433.72;;;0.70;100.00
6395;BME280;3230;42.588;23.358;2023-02-04T05:33:17;90429.69;;;0.62;100.00
6395;BME280;3230;42.588;23.358;2023-02-04T05:35:42;90442.66;;;0.27;100.00
6395;BME280;3230;42.588;23.358;2023-02-04T05:38:08;90453.19;;;0.13;100.00
6395;BME280;3230;42.588;23.358;2023-02-04T05:40:33;90449.81;;;0.13;100.00
6395;BME280;3230;42.588;23.358;2023-02-04T05:43:02;90458.88;;;0.04;100.00
6395;BME280;3230;42.588;23.358;2023-02-04T05:45:29;90463.50;;;0.02;100.00
6395;BME280;3230;42.588;23.358;2023-02-04T05:47:54;90462.38;;;-0.14;100.00
6395;BME280;3230;42.588;23.358;2023-02-04T05:50:20;90479.91;;;-0.23;100.00
6395;BME280;3230;42.588;23.358;2023-02-04T05:52:45;90488.56;;;-0.18;100.00
6395;BME280;3230;42.588;23.358;2023-02-04T05:55:11;90494.25;;;-0.27;100.00
6395;BME280;3230;42.588;23.358;2023-02-04T05:57:37;90508.03;;;-0.10;100.00
6395;BME280;3230;42.588;23.358;2023-02-04T06:00:04;90491.72;;;-0.04;100.00
6395;BME280;3230;42.588;23.358;2023-02-04T06:02:30;90482.63;;;0.06;100.00
6395;BME280;3230;42.588;23.358;2023-02-04T06:04:55;90465.16;;;0.08;100.00
6395;BME280;3230;42.588;23.358;2023-02-04T06:07:20;90465.94;;;0.08;100.00
6395;BME280;3230;42.588;23.358;2023-02-04T06:09:46;90435.94;;;0.14;100.00
6395;BME280;3230;42.588;23.358;2023-02-04T06:12:11;90456.88;;;0.18;100.00
6395;BME280;3230;42.588;23.358;2023-02-04T06:14:36;90464.03;;;0.27;100.00
6395;BME280;3230;42.588;23.358;2023-02-04T06:17:02;90482.28;;;0.38;99.66
6395;BME280;3230;42.588;23.358;2023-02-04T06:19:28;90480.38;;;0.45;98.61
6395;BME280;3230;42.588;23.358;2023-02-04T06:21:53;90491.94;;;0.54;98.34
6395;BME280;3230;42.588;23.358;2023-02-04T06:24:18;90495.59;;;0.58;97.10
6395;BME280;3230;42.588;23.358;2023-02-04T06:26:44;90504.91;;;0.71;96.64
6395;BME280;3230;42.588;23.358;2023-02-04T06:29:09;90503.63;;;0.98;96.21
6395;BME280;3230;42.588;23.358;2023-02-04T06:31:34;90498.22;;;1.11;94.35
6395;BME280;3230;42.588;23.358;2023-02-04T06:34:02;90501.72;;;1.34;93.83
6395;BME280;3230;42.588;23.358;2023-02-04T06:36:28;90508.53;;;1.40;92.93
6395;BME280;3230;42.588;23.358;2023-02-04T06:38:53;90510.56;;;1.38;92.66
6395;BME280;3230;42.588;23.358;2023-02-04T06:41:19;90508.00;;;1.38;92.03
6395;BME280;3230;42.588;23.358;2023-02-04T06:43:44;90509.56;;;1.39;91.42
6395;BME280;3230;42.588;23.358;2023-02-04T06:46:09;90504.97;;;1.29;91.38
6395;BME280;3230;42.588;23.358;2023-02-04T06:48:35;90505.50;;;1.43;91.62
6395;BME280;3230;42.588;23.358;2023-02-04T06:51:00;90508.81;;;1.55;90.33
6395;BME280;3230;42.588;23.358;2023-02-04T06:53:26;90510.09;;;1.70;89.72
6395;BME280;3230;42.588;23.358;2023-02-04T06:55:51;90506.56;;;1.76;90.42
6395;BME280;3230;42.588;23.358;2023-02-04T06:58:17;90519.13;;;2.01;89.75
6395;BME280;3230;42.588;23.358;2023-02-04T07:00:42;90515.44;;;2.14;88.08
6395;BME280;3230;42.588;23.358;2023-02-04T07:03:08;90510.44;;;2.24;88.30
6395;BME280;3230;42.588;23.358;2023-02-04T07:05:33;90513.03;;;2.42;87.28
6395;BME280;3230;42.588;23.358;2023-02-04T07:07:59;90507.78;;;2.76;86.21
6395;BME280;3230;42.588;23.358;2023-02-04T07:10:24;90502.94;;;2.79;85.70
6395;BME280;3230;42.588;23.358;2023-02-04T07:12:50;90490.69;;;2.75;85.89
6395;BME280;3230;42.588;23.358;2023-02-04T07:15:16;90495.63;;;2.76;85.32
6395;BME280;3230;42.588;23.358;2023-02-04T07:17:41;90500.09;;;3.03;85.35
6395;BME280;3230;42.588;23.358;2023-02-04T07:20:07;90486.75;;;3.11;83.63
6395;BME280;3230;42.588;23.358;2023-02-04T07:22:33;90499.81;;;3.22;84.51
6395;BME280;3230;42.588;23.358;2023-02-04T07:24:58;90497.44;;;3.42;83.38
6395;BME280;3230;42.588;23.358;2023-02-04T07:27:24;90488.13;;;3.41;82.71
6395;BME280;3230;42.588;23.358;2023-02-04T07:29:49;90495.94;;;3.46;82.19
6395;BME280;3230;42.588;23.358;2023-02-04T07:32:14;90480.88;;;3.71;82.48
6395;BME280;3230;42.588;23.358;2023-02-04T07:34:40;90486.22;;;4.61;77.31
6395;BME280;3230;42.588;23.358;2023-02-04T07:37:05;90500.72;;;5.74;71.80
6395;BME280;3230;42.588;23.358;2023-02-04T07:39:30;90494.56;;;6.47;67.29
6395;BME280;3230;42.588;23.358;2023-02-04T07:41:56;90492.16;;;7.08;60.78
6395;BME280;3230;42.588;23.358;2023-02-04T07:44:21;90489.53;;;7.02;61.57
6395;BME280;3230;42.588;23.358;2023-02-04T07:46:47;90480.59;;;7.34;58.76
6395;BME280;3230;42.588;23.358;2023-02-04T07:49:12;90475.34;;;7.40;57.40
6395;BME280;3230;42.588;23.358;2023-02-04T07:51:37;90487.59;;;7.94;55.42
6395;BME280;3230;42.588;23.358;2023-02-04T07:54:03;90495.59;;;8.48;54.98
6395;BME280;3230;42.588;23.358;2023-02-04T07:56:28;90479.75;;;9.22;49.90
6395;BME280;3230;42.588;23.358;2023-02-04T07:58:54;90472.00;;;9.36;47.00
6395;BME280;3230;42.588;23.358;2023-02-04T08:01:19;90467.28;;;9.14;48.43
6395;BME280;3230;42.588;23.358;2023-02-04T08:03:44;90479.41;;;8.46;50.79
6395;BME280;3230;42.588;23.358;2023-02-04T08:06:10;90473.56;;;7.85;51.48
6395;BME280;3230;42.588;23.358;2023-02-04T08:08:35;90464.59;;;6.76;58.31
6395;BME280;3230;42.588;23.358;2023-02-04T08:11:01;90478.94;;;6.63;58.55
6395;BME280;3230;42.588;23.358;2023-02-04T08:13:26;90476.38;;;6.27;61.28
6395;BME280;3230;42.588;23.358;2023-02-04T08:15:52;90461.78;;;6.00;63.83
6395;BME280;3230;42.588;23.358;2023-02-04T08:18:17;90471.09;;;5.75;66.32
6395;BME280;3230;42.588;23.358;2023-02-04T08:20:42;90461.63;;;5.27;67.32
6395;BME280;3230;42.588;23.358;2023-02-04T08:23:08;90458.25;;;5.32;67.24
6395;BME280;3230;42.588;23.358;2023-02-04T08:25:33;90463.13;;;5.08;68.11
6395;BME280;3230;42.588;23.358;2023-02-04T08:27:59;90460.81;;;5.17;68.83
6395;BME280;3230;42.588;23.358;2023-02-04T08:30:24;90463.78;;;4.88;68.47
6395;BME280;3230;42.588;23.358;2023-02-04T08:32:49;90467.94;;;4.84;70.75
6395;BME280;3230;42.588;23.358;2023-02-04T08:35:15;90449.81;;;4.99;70.20
6395;BME280;3230;42.588;23.358;2023-02-04T08:37:40;90453.50;;;5.08;69.65
6395;BME280;3230;42.588;23.358;2023-02-04T08:40:06;90453.53;;;5.19;68.08
6395;BME280;3230;42.588;23.358;2023-02-04T08:42:31;90445.22;;;5.17;68.49
6395;BME280;3230;42.588;23.358;2023-02-04T08:44:58;90455.09;;;5.20;66.47
6395;BME280;3230;42.588;23.358;2023-02-04T08:47:24;90443.59;;;4.95;69.35
6395;BME280;3230;42.588;23.358;2023-02-04T08:49:49;90455.47;;;4.80;68.66
6395;BME280;3230;42.588;23.358;2023-02-04T08:52:15;90468.03;;;5.04;69.86
6395;BME280;3230;42.588;23.358;2023-02-04T08:54:40;90456.81;;;4.93;70.28
6395;BME280;3230;42.588;23.358;2023-02-04T08:57:06;90452.94;;;4.91;70.99
6395;BME280;3230;42.588;23.358;2023-02-04T08:59:31;90443.56;;;4.90;70.55
6395;BME280;3230;42.588;23.358;2023-02-04T09:01:56;90453.88;;;4.74;69.38
6395;BME280;3230;42.588;23.358;2023-02-04T09:04:22;90450.25;;;4.75;69.04
6395;BME280;3230;42.588;23.358;2023-02-04T09:06:49;90461.00;;;4.52;71.60
6395;BME280;3230;42.588;23.358;2023-02-04T09:09:15;90453.09;;;4.31;74.70
6395;BME280;3230;42.588;23.358;2023-02-04T09:11:42;90448.28;;;4.50;74.41
6395;BME280;3230;42.588;23.358;2023-02-04T09:14:07;90459.47;;;4.51;74.18
6395;BME280;3230;42.588;23.358;2023-02-04T09:16:33;90449.88;;;4.56;73.79
6395;BME280;3230;42.588;23.358;2023-02-04T09:18:58;90451.75;;;4.66;72.52
6395;BME280;3230;42.588;23.358;2023-02-04T09:21:25;90453.56;;;4.60;72.69
6395;BME280;3230;42.588;23.358;2023-02-04T09:23:50;90452.03;;;4.75;71.27
6395;BME280;3230;42.588;23.358;2023-02-04T09:26:16;90458.75;;;4.60;73.88
6395;BME280;3230;42.588;23.358;2023-02-04T09:28:41;90452.63;;;4.39;75.24
6395;BME280;3230;42.588;23.358;2023-02-04T09:31:07;90463.66;;;4.57;75.03
6395;BME280;3230;42.588;23.358;2023-02-04T09:33:33;90452.09;;;4.37;72.76
6395;BME280;3230;42.588;23.358;2023-02-04T09:35:59;90453.06;;;4.26;74.94
6395;BME280;3230;42.588;23.358;2023-02-04T09:38:24;90445.03;;;4.27;75.20
6395;BME280;3230;42.588;23.358;2023-02-04T09:40:56;90438.94;;;4.11;77.56
6395;BME280;3230;42.588;23.358;2023-02-04T09:43:27;90429.94;;;3.81;83.43
6395;BME280;3230;42.588;23.358;2023-02-04T09:45:54;90421.16;;;3.88;84.17
6395;BME280;3230;42.588;23.358;2023-02-04T09:48:22;90432.69;;;4.02;84.48
6395;BME280;3230;42.588;23.358;2023-02-04T09:50:49;90427.28;;;4.09;85.37
6395;BME280;3230;42.588;23.358;2023-02-04T09:53:19;90423.09;;;4.03;85.99
6395;BME280;3230;42.588;23.358;2023-02-04T09:55:47;90425.75;;;4.13;86.94
6395;BME280;3230;42.588;23.358;2023-02-04T09:58:14;90424.03;;;4.29;86.42
6395;BME280;3230;42.588;23.358;2023-02-04T10:00:42;90417.63;;;4.42;85.26
6395;BME280;3230;42.588;23.358;2023-02-04T10:03:13;90415.78;;;4.37;86.01
6395;BME280;3230;42.588;23.358;2023-02-04T10:05:40;90414.41;;;4.24;84.20
6395;BME280;3230;42.588;23.358;2023-02-04T10:08:06;90412.44;;;4.42;82.71
6395;BME280;3230;42.588;23.358;2023-02-04T10:10:31;90406.66;;;4.29;84.18
6395;BME280;3230;42.588;23.358;2023-02-04T10:13:00;90410.13;;;4.45;84.56
6395;BME280;3230;42.588;23.358;2023-02-04T10:15:27;90415.53;;;4.39;81.57
6395;BME280;3230;42.588;23.358;2023-02-04T10:17:57;90403.75;;;4.21;82.66
6395;BME280;3230;42.588;23.358;2023-02-04T10:20:25;90385.03;;;4.08;84.14
6395;BME280;3230;42.588;23.358;2023-02-04T10:22:52;90395.59;;;4.02;84.63
6395;BME280;3230;42.588;23.358;2023-02-04T10:25:21;90393.38;;;4.21;82.88
6395;BME280;3230;42.588;23.358;2023-02-04T10:27:58;90390.34;;;4.34;84.19
6395;BME280;3230;42.588;23.358;2023-02-04T10:30:29;90376.81;;;4.22;83.79
6395;BME280;3230;42.588;23.358;2023-02-04T10:33:00;90393.59;;;4.14;84.08
6395;BME280;3230;42.588;23.358;2023-02-04T10:35:44;90395.69;;;4.17;84.92
6395;BME280;3230;42.588;23.358;2023-02-04T10:38:10;90399.97;;;4.34;85.49
6395;BME280;3230;42.588;23.358;2023-02-04T10:40:35;90385.25;;;4.50;83.81
6395;BME280;3230;42.588;23.358;2023-02-04T10:43:16;90388.81;;;4.38;83.82
6395;BME280;3230;42.588;23.358;2023-02-04T10:45:46;90383.03;;;4.26;86.98
6395;BME280;3230;42.588;23.358;2023-02-04T10:48:15;90366.31;;;4.06;87.06
6395;BME280;3230;42.588;23.358;2023-02-04T10:50:42;90374.25;;;3.89;89.41
6395;BME280;3230;42.588;23.358;2023-02-04T10:53:09;90368.00;;;3.85;90.03
6395;BME280;3230;42.588;23.358;2023-02-04T10:55:54;90364.28;;;4.08;91.24
6395;BME280;3230;42.588;23.358;2023-02-04T10:58:26;90370.06;;;4.26;89.42
6395;BME280;3230;42.588;23.358;2023-02-04T11:00:52;90357.69;;;4.38;88.25
6395;BME280;3230;42.588;23.358;2023-02-04T11:03:24;90354.41;;;4.53;87.29
6395;BME280;3230;42.588;23.358;2023-02-04T11:05:51;90357.78;;;4.59;86.12
6395;BME280;3230;42.588;23.358;2023-02-04T11:08:20;90360.41;;;4.69;83.30
6395;BME280;3230;42.588;23.358;2023-02-04T11:11:01;90360.97;;;4.82;83.20
6395;BME280;3230;42.588;23.358;2023-02-04T11:19:11;90346.31;;;5.34;77.98
6395;BME280;3230;42.588;23.358;2023-02-04T11:26:37;90345.78;;;5.21;76.91
6395;BME280;3230;42.588;23.358;2023-02-04T11:31:40;90352.78;;;5.36;74.79
6395;BME280;3230;42.588;23.358;2023-02-04T11:34:10;90359.03;;;5.40;74.67
6395;BME280;3230;42.588;23.358;2023-02-04T11:39:44;90359.31;;;5.54;75.16
6395;BME280;3230;42.588;23.358;2023-02-04T11:42:31;90366.06;;;5.55;74.34
6395;BME280;3230;42.588;23.358;2023-02-04T11:45:12;90356.66;;;5.23;72.75
6395;BME280;3230;42.588;23.358;2023-02-04T11:47:38;90349.63;;;5.19;75.05
6395;BME280;3230;42.588;23.358;2023-02-04T11:50:15;90360.59;;;5.47;75.09
6395;BME280;3230;42.588;23.358;2023-02-04T11:52:41;90354.78;;;4.93;74.42
6395;BME280;3230;42.588;23.358;2023-02-04T11:55:09;90365.22;;;5.13;74.12
6395;BME280;3230;42.588;23.358;2023-02-04T11:57:40;90353.22;;;4.92;75.24
6395;BME280;3230;42.588;23.358;2023-02-04T12:00:12;90345.41;;;4.92;76.60
6395;BME280;3230;42.588;23.358;2023-02-04T12:05:21;90343.41;;;5.04;78.09
6395;BME280;3230;42.588;23.358;2023-02-04T12:07:47;90340.50;;;4.95;75.97
6395;BME280;3230;42.588;23.358;2023-02-04T12:12:48;90333.72;;;4.79;78.45
6395;BME280;3230;42.588;23.358;2023-02-04T12:15:20;90336.00;;;4.65;82.79
6395;BME280;3230;42.588;23.358;2023-02-04T12:18:08;90331.75;;;4.38;84.79
6395;BME280;3230;42.588;23.358;2023-02-04T12:20:37;90322.34;;;4.27;86.56
6395;BME280;3230;42.588;23.358;2023-02-04T12:23:04;90330.13;;;4.27;85.55
6395;BME280;3230;42.588;23.358;2023-02-04T12:25:30;90313.00;;;4.21;84.39
6395;BME280;3230;42.588;23.358;2023-02-04T12:27:56;90316.69;;;4.35;85.88
6395;BME280;3230;42.588;23.358;2023-02-04T12:30:22;90317.47;;;4.36;83.63
6395;BME280;3230;42.588;23.358;2023-02-04T12:32:48;90310.41;;;4.21;83.91
6395;BME280;3230;42.588;23.358;2023-02-04T12:35:13;90315.66;;;4.36;83.06
6395;BME280;3230;42.588;23.358;2023-02-04T12:37:39;90313.44;;;4.07;84.77
6395;BME280;3230;42.588;23.358;2023-02-04T12:40:05;90325.56;;;3.91;83.88
6395;BME280;3230;42.588;23.358;2023-02-04T12:42:31;90318.22;;;3.83;84.90
6395;BME280;3230;42.588;23.358;2023-02-04T12:44:56;90330.47;;;3.93;86.50
6395;BME280;3230;42.588;23.358;2023-02-04T12:47:21;90316.97;;;3.91;86.62
6395;BME280;3230;42.588;23.358;2023-02-04T12:49:47;90331.06;;;4.05;85.75
6395;BME280;3230;42.588;23.358;2023-02-04T12:52:12;90325.56;;;3.91;85.90
6395;BME280;3230;42.588;23.358;2023-02-04T12:54:38;90329.34;;;3.78;86.35
6395;BME280;3230;42.588;23.358;2023-02-04T12:57:03;90326.75;;;3.78;83.80
6395;BME280;3230;42.588;23.358;2023-02-04T12:59:29;90342.41;;;3.94;82.31
6395;BME280;3230;42.588;23.358;2023-02-04T13:01:56;90317.59;;;4.03;83.41
6395;BME280;3230;42.588;23.358;2023-02-04T13:04:21;90322.28;;;4.11;79.74
6395;BME280;3230;42.588;23.358;2023-02-04T13:06:47;90328.66;;;4.41;79.67
6395;BME280;3230;42.588;23.358;2023-02-04T13:09:12;90326.81;;;4.42;79.14
6395;BME280;3230;42.588;23.358;2023-02-04T13:11:38;90314.31;;;4.28;79.96
6395;BME280;3230;42.588;23.358;2023-02-04T13:14:03;90327.47;;;4.11;80.19
6395;BME280;3230;42.588;23.358;2023-02-04T13:16:28;90331.09;;;4.10;80.91
6395;BME280;3230;42.588;23.358;2023-02-04T13:18:54;90326.56;;;3.90;83.55
6395;BME280;3230;42.588;23.358;2023-02-04T13:21:19;90334.41;;;3.63;83.92
6395;BME280;3230;42.588;23.358;2023-02-04T13:23:44;90339.06;;;3.56;86.01
6395;BME280;3230;42.588;23.358;2023-02-04T13:26:10;90328.22;;;3.64;85.58
6395;BME280;3230;42.588;23.358;2023-02-04T13:28:35;90331.38;;;3.71;85.68
6395;BME280;3230;42.588;23.358;2023-02-04T13:31:01;90343.84;;;3.74;84.29
6395;BME280;3230;42.588;23.358;2023-02-04T13:33:26;90344.09;;;3.73;84.08
6395;BME280;3230;42.588;23.358;2023-02-04T13:35:52;90337.28;;;3.66;84.86
6395;BME280;3230;42.588;23.358;2023-02-04T13:38:17;90326.31;;;3.54;83.70